createdAt,value
2023-03-21T00:02:33.659Z,77.62
2023-03-21T00:07:39.003Z,75.37
2023-03-21T00:12:42.968Z,75.26
2023-03-21T00:17:50.859Z,71.24
2023-03-21T00:22:56.337Z,70.61
2023-03-21T00:28:08.469Z,73.24
2023-03-21T00:33:22.364Z,70.03
2023-03-21T00:38:31.098Z,77.39
2023-03-21T00:43:35.355Z,84.63
2023-03-21T00:48:39.343Z,90.23
2023-03-21T00:53:50.551Z,94.39
2023-03-21T00:58:54.568Z,98.23
2023-03-21T01:04:03.694Z,100.00
2023-03-21T01:09:12.853Z,100.00
2023-03-21T01:14:23.012Z,100.00
2023-03-21T01:19:44.335Z,99.91
2023-03-21T01:24:58.608Z,95.30
2023-03-21T01:30:18.987Z,86.67
2023-03-21T01:35:23.989Z,86.32
2023-03-21T01:40:33.603Z,78.02
2023-03-21T01:46:51.431Z,73.94
2023-03-21T01:52:37.977Z,73.39
2023-03-21T01:58:05.407Z,75.08
2023-03-21T02:03:29.498Z,88.59
2023-03-21T02:08:50.292Z,95.60
2023-03-21T02:14:05.686Z,95.88
2023-03-21T02:19:52.937Z,97.58
2023-03-21T02:25:29.407Z,100.00
2023-03-21T02:30:52.404Z,100.00
2023-03-21T02:36:27.017Z,100.00
2023-03-21T02:41:40.551Z,100.00
2023-03-21T02:46:59.746Z,100.00
2023-03-21T02:52:17.081Z,100.00
2023-03-21T02:57:40.082Z,100.00
2023-03-21T03:02:50.612Z,100.00
2023-03-21T03:08:07.885Z,100.00
2023-03-21T03:13:25.694Z,100.00
2023-03-21T03:18:37.884Z,100.00
2023-03-21T03:23:46.141Z,100.00
2023-03-21T03:28:53.699Z,100.00
2023-03-21T03:34:02.315Z,100.00
2023-03-21T03:39:10.879Z,100.00
2023-03-21T03:44:20.386Z,100.00
2023-03-21T03:49:38.104Z,100.00
2023-03-21T03:54:45.330Z,100.00
2023-03-21T03:59:55.154Z,100.00
2023-03-21T04:05:23.450Z,100.00
2023-03-21T04:10:27.462Z,100.00
2023-03-21T04:15:32.975Z,100.00
2023-03-21T04:20:48.704Z,100.00
2023-03-21T04:25:57.093Z,100.00
2023-03-21T04:31:24.491Z,100.00
2023-03-21T04:36:39.069Z,100.00
2023-03-21T04:41:47.027Z,100.00
2023-03-21T04:46:52.576Z,100.00
2023-03-21T04:51:56.566Z,100.00
2023-03-21T04:57:00.672Z,100.00
2023-03-21T05:02:06.265Z,100.00
2023-03-21T05:07:10.557Z,100.00
2023-03-21T05:12:14.500Z,100.00
2023-03-21T05:17:23.333Z,100.00
2023-03-21T05:22:29.205Z,100.00
2023-03-21T05:27:36.466Z,100.00
2023-03-21T05:32:48.637Z,100.00
2023-03-21T05:37:53.265Z,100.00
2023-03-21T05:42:59.116Z,100.00
2023-03-21T05:48:05.003Z,100.00
2023-03-21T05:53:15.379Z,100.00
2023-03-21T05:58:19.579Z,98.77
2023-03-21T06:03:28.430Z,100.00
2023-03-21T06:08:40.295Z,99.87
2023-03-21T06:13:44.303Z,95.95
2023-03-21T06:18:49.805Z,90.29
2023-03-21T06:24:04.885Z,79.63
2023-03-21T06:29:08.936Z,71.87
2023-03-21T06:34:14.447Z,66.76
2023-03-21T06:39:18.475Z,64.72
2023-03-21T06:44:23.204Z,59.42
2023-03-21T06:49:37.570Z,59.09
2023-03-21T06:54:46.443Z,61.67
2023-03-21T06:59:53.076Z,60.72
2023-03-21T07:05:01.285Z,66.05
2023-03-21T07:10:08.992Z,70.95
2023-03-21T07:15:28.839Z,68.90
2023-03-21T07:20:34.383Z,64.34
2023-03-21T07:25:57.215Z,63.17
2023-03-21T07:31:04.111Z,65.16
2023-03-21T07:36:12.654Z,70.43
2023-03-21T07:46:28.038Z,70.75
2023-03-21T07:51:35.418Z,70.40
2023-03-21T07:56:39.366Z,70.59
2023-03-21T08:01:43.481Z,69.02
2023-03-21T08:06:48.846Z,73.42
2023-03-21T08:11:52.869Z,71.84
2023-03-21T08:16:56.861Z,65.10
2023-03-21T08:22:02.443Z,60.81
2023-03-21T08:27:06.817Z,63.15
2023-03-21T08:32:11.121Z,64.11
2023-03-21T08:37:16.633Z,62.86
2023-03-21T08:42:21.605Z,62.09
2023-03-21T08:47:25.734Z,57.04
2023-03-21T08:52:34.425Z,56.20
2023-03-21T08:57:38.346Z,56.85
2023-03-21T09:02:42.936Z,50.83
2023-03-21T09:07:49.760Z,52.93
2023-03-21T09:12:55.842Z,52.32
2023-03-21T09:18:13.068Z,50.13
2023-03-21T09:23:18.366Z,50.16
2023-03-21T09:28:22.429Z,55.37
2023-03-21T09:33:27.363Z,48.12
2023-03-21T09:38:36.738Z,48.02
2023-03-21T09:43:52.500Z,48.74
2023-03-21T09:49:00.323Z,49.16
2023-03-21T09:54:10.269Z,49.42
2023-03-21T09:59:23.713Z,49.87
2023-03-21T10:04:27.836Z,47.59
2023-03-21T10:09:34.912Z,46.88
2023-03-21T10:14:43.123Z,48.18
2023-03-21T10:19:48.348Z,48.80
2023-03-21T10:24:53.670Z,51.52
2023-03-21T10:29:57.602Z,45.23
2023-03-21T10:35:26.160Z,46.46
2023-03-21T10:40:33.555Z,49.92
2023-03-21T10:45:38.513Z,44.78
2023-03-21T10:50:43.779Z,47.44
2023-03-21T10:55:52.354Z,49.63
2023-03-21T11:00:59.349Z,47.46
2023-03-21T11:06:06.932Z,46.70
2023-03-21T11:11:21.679Z,45.46
2023-03-21T11:16:31.372Z,38.73
2023-03-21T11:21:38.640Z,39.27
2023-03-21T11:26:45.609Z,38.37
2023-03-21T11:31:49.953Z,36.44
2023-03-21T11:37:02.727Z,34.07
2023-03-21T11:42:23.335Z,38.26
2023-03-21T11:47:27.231Z,36.62
2023-03-21T11:52:41.640Z,39.44
2023-03-21T11:58:05.266Z,37.78
2023-03-21T12:03:54.753Z,39.00
2023-03-21T12:09:11.236Z,35.96
2023-03-21T12:14:25.742Z,37.29
2023-03-21T12:19:49.521Z,38.25
2023-03-21T12:24:56.763Z,40.42
2023-03-21T12:30:15.086Z,40.92
2023-03-21T12:35:32.616Z,38.90
2023-03-21T12:41:01.898Z,41.07
2023-03-21T12:46:15.105Z,44.46
2023-03-21T12:51:22.309Z,43.55
2023-03-21T12:56:31.228Z,45.13
2023-03-21T13:01:40.221Z,46.32
2023-03-21T13:06:47.175Z,47.32
2023-03-21T13:11:57.014Z,47.54
2023-03-21T13:17:05.581Z,47.98
2023-03-21T13:22:17.445Z,48.57
2023-03-21T13:27:29.665Z,49.47
2023-03-21T13:32:40.159Z,49.30
2023-03-21T13:37:51.501Z,49.70
2023-03-21T13:42:59.610Z,50.61
2023-03-21T13:48:07.841Z,49.92
2023-03-21T13:53:31.936Z,51.40
2023-03-21T13:58:39.152Z,50.04
2023-03-21T14:03:46.529Z,50.57
2023-03-21T14:08:50.562Z,51.57
2023-03-21T14:13:55.757Z,51.39
2023-03-21T14:19:04.988Z,54.37
2023-03-21T14:24:13.962Z,51.77
2023-03-21T14:29:26.404Z,53.38
2023-03-21T14:34:36.384Z,53.16
2023-03-21T14:39:44.534Z,54.65
2023-03-21T14:44:55.399Z,54.98
2023-03-21T14:50:02.205Z,54.54
2023-03-21T14:55:15.001Z,54.53
2023-03-21T15:00:28.510Z,55.31
2023-03-21T15:05:37.479Z,56.46
2023-03-21T15:10:42.011Z,57.06
2023-03-21T15:15:46.525Z,57.70
2023-03-21T15:20:53.519Z,57.08
2023-03-21T15:31:51.315Z,58.96
2023-03-21T15:37:00.270Z,59.47
2023-03-21T15:42:27.554Z,60.05
2023-03-21T15:47:42.001Z,60.73
2023-03-21T15:52:50.209Z,61.49
2023-03-21T15:57:56.360Z,61.89
2023-03-21T16:03:06.513Z,62.80
2023-03-21T16:08:23.184Z,62.53
2023-03-21T16:13:27.154Z,63.04
2023-03-21T16:18:32.088Z,63.58
2023-03-21T16:23:37.450Z,64.53
2023-03-21T16:28:41.398Z,65.59
2023-03-21T16:33:45.867Z,67.63
2023-03-21T16:38:52.771Z,69.72
2023-03-21T16:43:56.756Z,72.72
2023-03-21T16:49:00.744Z,78.86
2023-03-21T16:54:06.646Z,81.41
2023-03-21T16:59:13.561Z,85.10
2023-03-21T17:04:19.253Z,86.17
2023-03-21T17:09:28.028Z,85.74
2023-03-21T17:14:32.004Z,87.54
2023-03-21T17:19:35.990Z,89.79
2023-03-21T17:24:41.444Z,89.22
2023-03-21T17:29:45.988Z,99.66
2023-03-21T17:34:53.134Z,100.00
2023-03-21T17:39:58.626Z,100.00
2023-03-21T17:45:02.664Z,100.00
2023-03-21T17:50:14.631Z,100.00
2023-03-21T17:55:21.484Z,100.00
2023-03-21T18:00:28.933Z,100.00
2023-03-21T18:05:33.819Z,100.00
2023-03-21T18:10:39.373Z,100.00
2023-03-21T18:15:44.673Z,100.00
2023-03-21T18:20:53.045Z,100.00
2023-03-21T18:25:59.929Z,100.00
2023-03-21T18:31:17.364Z,100.00
2023-03-21T18:36:27.847Z,100.00
2023-03-21T18:41:35.298Z,100.00
2023-03-21T18:46:47.020Z,100.00
2023-03-21T18:51:51.389Z,100.00
2023-03-21T19:02:22.696Z,100.00
2023-03-21T19:07:27.033Z,100.00
2023-03-21T19:12:32.643Z,100.00
2023-03-21T19:23:00.655Z,100.00
2023-03-21T19:28:06.346Z,100.00
2023-03-21T19:33:10.269Z,100.00
2023-03-21T19:38:14.337Z,100.00
2023-03-21T19:48:50.315Z,100.00
2023-03-21T19:53:54.424Z,100.00
2023-03-21T19:59:01.315Z,100.00
2023-03-21T20:04:05.678Z,100.00
2023-03-21T20:09:49.793Z,100.00
2023-03-21T20:14:37.149Z,100.00
2023-03-21T20:19:43.774Z,100.00
2023-03-21T20:24:48.642Z,100.00
2023-03-21T20:30:09.048Z,100.00
2023-03-21T20:35:29.579Z,100.00
2023-03-21T20:40:41.045Z,100.00
2023-03-21T20:45:46.461Z,100.00
2023-03-21T20:50:57.213Z,100.00
2023-03-21T20:56:05.706Z,100.00
2023-03-21T21:01:15.683Z,100.00
2023-03-21T21:06:40.365Z,100.00
2023-03-21T21:17:30.686Z,100.00
2023-03-21T21:22:34.312Z,100.00
2023-03-21T21:27:38.344Z,100.00
2023-03-21T21:32:43.781Z,100.00
2023-03-21T21:37:47.733Z,100.00
2023-03-21T21:42:51.746Z,100.00
2023-03-21T21:47:57.734Z,100.00
2023-03-21T21:53:03.885Z,100.00
2023-03-21T21:58:08.553Z,100.00
2023-03-21T22:03:15.064Z,100.00
2023-03-21T22:08:23.092Z,100.00
2023-03-21T22:13:27.544Z,100.00
2023-03-21T22:18:36.108Z,100.00
2023-03-21T22:23:41.601Z,100.00
2023-03-21T22:28:45.610Z,100.00
2023-03-21T22:33:50.983Z,100.00
2023-03-21T22:38:54.997Z,100.00
2023-03-21T22:43:58.953Z,100.00
2023-03-21T22:49:06.050Z,100.00
2023-03-21T22:54:11.110Z,100.00
2023-03-21T22:59:15.110Z,100.00
2023-03-21T23:04:20.690Z,100.00
2023-03-21T23:09:25.108Z,100.00
2023-03-21T23:14:30.170Z,100.00
2023-03-21T23:19:35.855Z,100.00
2023-03-21T23:24:40.096Z,100.00
2023-03-21T23:29:45.441Z,100.00
2023-03-21T23:34:50.868Z,100.00
2023-03-21T23:39:55.516Z,100.00
2023-03-21T23:45:01.525Z,100.00
2023-03-21T23:50:09.832Z,100.00
2023-03-21T23:55:14.069Z,100.00
